sensor_id;sensor_type;location;lat;lon;timestamp;temperature;humidity
51815;DHT22;37874;53.158;6.766;2023-03-14T00:01:51;19.90;53.90
51815;DHT22;37874;53.158;6.766;2023-03-14T00:04:16;19.80;53.90
51815;DHT22;37874;53.158;6.766;2023-03-14T00:06:42;19.80;53.80
51815;DHT22;37874;53.158;6.766;2023-03-14T00:09:08;19.90;53.80
51815;DHT22;37874;53.158;6.766;2023-03-14T00:11:33;19.90;53.80
51815;DHT22;37874;53.158;6.766;2023-03-14T00:13:59;19.90;53.70
51815;DHT22;37874;53.158;6.766;2023-03-14T00:16:27;19.90;53.50
51815;DHT22;37874;53.158;6.766;2023-03-14T00:18:52;19.90;53.60
51815;DHT22;37874;53.158;6.766;2023-03-14T00:21:18;19.90;53.40
51815;DHT22;37874;53.158;6.766;2023-03-14T00:23:44;19.90;53.60
51815;DHT22;37874;53.158;6.766;2023-03-14T00:26:16;19.80;53.60
51815;DHT22;37874;53.158;6.766;2023-03-14T00:28:43;19.50;53.50
51815;DHT22;37874;53.158;6.766;2023-03-14T00:31:11;19.80;53.70
51815;DHT22;37874;53.158;6.766;2023-03-14T00:33:37;19.90;53.80
51815;DHT22;37874;53.158;6.766;2023-03-14T00:36:05;19.80;53.70
51815;DHT22;37874;53.158;6.766;2023-03-14T00:38:32;19.80;53.50
51815;DHT22;37874;53.158;6.766;2023-03-14T00:40:58;19.80;53.80
51815;DHT22;37874;53.158;6.766;2023-03-14T00:43:24;19.70;53.60
51815;DHT22;37874;53.158;6.766;2023-03-14T00:45:51;19.80;53.80
51815;DHT22;37874;53.158;6.766;2023-03-14T00:48:18;19.80;53.70
51815;DHT22;37874;53.158;6.766;2023-03-14T00:50:44;19.90;53.70
51815;DHT22;37874;53.158;6.766;2023-03-14T00:53:10;19.80;53.60
51815;DHT22;37874;53.158;6.766;2023-03-14T00:55:40;19.80;53.40
51815;DHT22;37874;53.158;6.766;2023-03-14T00:58:06;19.70;53.40
51815;DHT22;37874;53.158;6.766;2023-03-14T01:00:32;19.70;53.40
51815;DHT22;37874;53.158;6.766;2023-03-14T01:02:58;19.70;53.40
51815;DHT22;37874;53.158;6.766;2023-03-14T01:05:23;19.70;53.20
51815;DHT22;37874;53.158;6.766;2023-03-14T01:07:49;19.70;53.40
51815;DHT22;37874;53.158;6.766;2023-03-14T01:10:16;19.60;53.20
51815;DHT22;37874;53.158;6.766;2023-03-14T01:12:42;19.60;53.30
51815;DHT22;37874;53.158;6.766;2023-03-14T01:15:08;19.60;53.60
51815;DHT22;37874;53.158;6.766;2023-03-14T01:17:34;19.60;53.60
51815;DHT22;37874;53.158;6.766;2023-03-14T01:20:00;19.60;53.20
51815;DHT22;37874;53.158;6.766;2023-03-14T01:22:26;19.60;53.50
51815;DHT22;37874;53.158;6.766;2023-03-14T01:24:52;19.60;53.30
51815;DHT22;37874;53.158;6.766;2023-03-14T01:27:17;19.60;53.40
51815;DHT22;37874;53.158;6.766;2023-03-14T01:29:43;19.50;53.40
51815;DHT22;37874;53.158;6.766;2023-03-14T01:32:09;19.50;53.40
51815;DHT22;37874;53.158;6.766;2023-03-14T01:34:34;19.50;53.40
51815;DHT22;37874;53.158;6.766;2023-03-14T01:37:00;19.50;53.30
51815;DHT22;37874;53.158;6.766;2023-03-14T01:39:26;19.50;53.10
51815;DHT22;37874;53.158;6.766;2023-03-14T01:41:51;19.50;53.30
51815;DHT22;37874;53.158;6.766;2023-03-14T01:44:17;19.50;53.50
51815;DHT22;37874;53.158;6.766;2023-03-14T01:46:44;19.50;53.20
51815;DHT22;37874;53.158;6.766;2023-03-14T01:54:34;19.50;53.00
51815;DHT22;37874;53.158;6.766;2023-03-14T01:57:23;19.40;52.80
51815;DHT22;37874;53.158;6.766;2023-03-14T02:00:12;19.40;53.00
51815;DHT22;37874;53.158;6.766;2023-03-14T02:02:50;19.50;52.90
51815;DHT22;37874;53.158;6.766;2023-03-14T02:05:23;19.40;53.00
51815;DHT22;37874;53.158;6.766;2023-03-14T02:07:52;19.40;53.00
51815;DHT22;37874;53.158;6.766;2023-03-14T02:10:20;19.40;53.00
51815;DHT22;37874;53.158;6.766;2023-03-14T02:12:48;19.40;52.70
51815;DHT22;37874;53.158;6.766;2023-03-14T02:15:14;19.40;53.00
51815;DHT22;37874;53.158;6.766;2023-03-14T02:17:44;19.50;52.80
51815;DHT22;37874;53.158;6.766;2023-03-14T02:22:58;19.40;53.00
51815;DHT22;37874;53.158;6.766;2023-03-14T02:28:10;19.40;52.80
51815;DHT22;37874;53.158;6.766;2023-03-14T02:30:36;19.30;53.00
51815;DHT22;37874;53.158;6.766;2023-03-14T02:35:41;19.40;52.80
51815;DHT22;37874;53.158;6.766;2023-03-14T02:38:20;19.30;52.90
51815;DHT22;37874;53.158;6.766;2023-03-14T02:40:48;19.30;52.70
51815;DHT22;37874;53.158;6.766;2023-03-14T02:43:13;19.40;53.00
51815;DHT22;37874;53.158;6.766;2023-03-14T02:45:40;19.40;53.10
51815;DHT22;37874;53.158;6.766;2023-03-14T02:48:11;19.40;53.00
51815;DHT22;37874;53.158;6.766;2023-03-14T02:50:37;19.30;52.90
51815;DHT22;37874;53.158;6.766;2023-03-14T02:53:04;19.30;52.80
51815;DHT22;37874;53.158;6.766;2023-03-14T02:55:29;19.30;53.00
51815;DHT22;37874;53.158;6.766;2023-03-14T02:57:55;19.30;53.10
51815;DHT22;37874;53.158;6.766;2023-03-14T03:00:20;19.30;52.90
51815;DHT22;37874;53.158;6.766;2023-03-14T03:02:46;19.30;53.10
51815;DHT22;37874;53.158;6.766;2023-03-14T03:05:12;19.30;52.80
51815;DHT22;37874;53.158;6.766;2023-03-14T03:07:38;19.30;52.80
51815;DHT22;37874;53.158;6.766;2023-03-14T03:10:04;19.30;52.90
51815;DHT22;37874;53.158;6.766;2023-03-14T03:12:30;19.70;53.30
51815;DHT22;37874;53.158;6.766;2023-03-14T03:14:55;19.30;53.00
51815;DHT22;37874;53.158;6.766;2023-03-14T03:17:21;19.30;52.90
51815;DHT22;37874;53.158;6.766;2023-03-14T03:19:46;19.30;53.10
51815;DHT22;37874;53.158;6.766;2023-03-14T03:22:12;19.30;52.90
51815;DHT22;37874;53.158;6.766;2023-03-14T03:24:38;19.30;52.90
51815;DHT22;37874;53.158;6.766;2023-03-14T03:27:03;19.30;52.90
51815;DHT22;37874;53.158;6.766;2023-03-14T03:29:29;19.20;53.00
51815;DHT22;37874;53.158;6.766;2023-03-14T03:31:55;19.20;52.90
51815;DHT22;37874;53.158;6.766;2023-03-14T03:34:21;19.20;53.20
51815;DHT22;37874;53.158;6.766;2023-03-14T03:36:46;19.20;53.30
51815;DHT22;37874;53.158;6.766;2023-03-14T03:39:12;19.20;53.20
51815;DHT22;37874;53.158;6.766;2023-03-14T03:41:38;19.20;53.20
51815;DHT22;37874;53.158;6.766;2023-03-14T03:44:03;19.20;53.20
51815;DHT22;37874;53.158;6.766;2023-03-14T03:46:31;19.30;53.00
51815;DHT22;37874;53.158;6.766;2023-03-14T03:48:58;19.20;53.30
51815;DHT22;37874;53.158;6.766;2023-03-14T03:51:25;19.20;53.30
51815;DHT22;37874;53.158;6.766;2023-03-14T03:53:50;19.20;53.40
51815;DHT22;37874;53.158;6.766;2023-03-14T03:56:16;19.20;53.40
51815;DHT22;37874;53.158;6.766;2023-03-14T03:58:42;19.20;53.40
51815;DHT22;37874;53.158;6.766;2023-03-14T04:01:09;19.40;53.60
51815;DHT22;37874;53.158;6.766;2023-03-14T04:03:36;19.20;53.40
51815;DHT22;37874;53.158;6.766;2023-03-14T04:06:13;19.20;53.40
51815;DHT22;37874;53.158;6.766;2023-03-14T04:08:39;19.20;53.30
51815;DHT22;37874;53.158;6.766;2023-03-14T04:11:06;19.20;53.30
51815;DHT22;37874;53.158;6.766;2023-03-14T04:13:31;19.20;53.30
51815;DHT22;37874;53.158;6.766;2023-03-14T04:15:57;19.20;53.30
51815;DHT22;37874;53.158;6.766;2023-03-14T04:18:23;19.20;53.30
51815;DHT22;37874;53.158;6.766;2023-03-14T04:20:56;19.20;53.40
51815;DHT22;37874;53.158;6.766;2023-03-14T04:23:23;19.20;53.50
51815;DHT22;37874;53.158;6.766;2023-03-14T04:25:52;19.20;53.60
51815;DHT22;37874;53.158;6.766;2023-03-14T04:28:18;19.20;53.50
51815;DHT22;37874;53.158;6.766;2023-03-14T04:30:44;19.20;53.40
51815;DHT22;37874;53.158;6.766;2023-03-14T04:33:10;19.20;53.60
51815;DHT22;37874;53.158;6.766;2023-03-14T04:35:38;19.10;53.40
51815;DHT22;37874;53.158;6.766;2023-03-14T04:38:03;19.10;53.40
51815;DHT22;37874;53.158;6.766;2023-03-14T04:40:29;19.10;53.50
51815;DHT22;37874;53.158;6.766;2023-03-14T04:42:55;19.10;53.50
51815;DHT22;37874;53.158;6.766;2023-03-14T04:45:20;19.10;53.60
51815;DHT22;37874;53.158;6.766;2023-03-14T04:47:46;19.10;53.60
51815;DHT22;37874;53.158;6.766;2023-03-14T04:50:11;19.10;53.60
51815;DHT22;37874;53.158;6.766;2023-03-14T04:52:37;19.10;53.60
51815;DHT22;37874;53.158;6.766;2023-03-14T04:55:03;19.10;53.70
51815;DHT22;37874;53.158;6.766;2023-03-14T04:57:29;19.10;53.60
51815;DHT22;37874;53.158;6.766;2023-03-14T04:59:54;19.10;53.60
51815;DHT22;37874;53.158;6.766;2023-03-14T05:02:20;19.10;53.60
51815;DHT22;37874;53.158;6.766;2023-03-14T05:04:45;19.10;53.70
51815;DHT22;37874;53.158;6.766;2023-03-14T05:07:11;19.10;53.70
51815;DHT22;37874;53.158;6.766;2023-03-14T05:09:36;19.10;53.70
51815;DHT22;37874;53.158;6.766;2023-03-14T05:12:02;19.10;53.60
51815;DHT22;37874;53.158;6.766;2023-03-14T05:14:28;19.10;53.60
51815;DHT22;37874;53.158;6.766;2023-03-14T05:16:53;19.10;53.50
51815;DHT22;37874;53.158;6.766;2023-03-14T05:19:19;19.10;53.70
51815;DHT22;37874;53.158;6.766;2023-03-14T05:21:44;19.10;53.60
51815;DHT22;37874;53.158;6.766;2023-03-14T05:24:10;19.10;53.60
51815;DHT22;37874;53.158;6.766;2023-03-14T05:26:36;19.10;53.40
51815;DHT22;37874;53.158;6.766;2023-03-14T05:29:01;19.10;53.50
51815;DHT22;37874;53.158;6.766;2023-03-14T05:31:27;19.10;53.60
51815;DHT22;37874;53.158;6.766;2023-03-14T05:33:52;19.10;53.50
51815;DHT22;37874;53.158;6.766;2023-03-14T05:36:18;19.00;53.50
51815;DHT22;37874;53.158;6.766;2023-03-14T05:38:44;19.00;53.60
51815;DHT22;37874;53.158;6.766;2023-03-14T05:41:09;19.10;53.50
51815;DHT22;37874;53.158;6.766;2023-03-14T05:43:35;19.10;53.60
51815;DHT22;37874;53.158;6.766;2023-03-14T05:46:01;19.00;53.50
51815;DHT22;37874;53.158;6.766;2023-03-14T05:48:26;19.10;53.60
51815;DHT22;37874;53.158;6.766;2023-03-14T05:50:58;19.00;53.60
51815;DHT22;37874;53.158;6.766;2023-03-14T05:53:25;19.00;53.50
51815;DHT22;37874;53.158;6.766;2023-03-14T05:55:52;19.00;53.50
51815;DHT22;37874;53.158;6.766;2023-03-14T05:58:18;19.00;53.60
51815;DHT22;37874;53.158;6.766;2023-03-14T06:00:43;19.00;53.50
51815;DHT22;37874;53.158;6.766;2023-03-14T06:03:09;19.10;53.60
51815;DHT22;37874;53.158;6.766;2023-03-14T06:05:35;18.90;53.50
51815;DHT22;37874;53.158;6.766;2023-03-14T06:08:00;19.00;53.50
51815;DHT22;37874;53.158;6.766;2023-03-14T06:10:26;19.00;53.70
51815;DHT22;37874;53.158;6.766;2023-03-14T06:12:52;19.10;53.70
51815;DHT22;37874;53.158;6.766;2023-03-14T06:15:17;19.00;53.60
51815;DHT22;37874;53.158;6.766;2023-03-14T06:17:43;19.00;53.70
51815;DHT22;37874;53.158;6.766;2023-03-14T06:20:11;18.90;53.50
51815;DHT22;37874;53.158;6.766;2023-03-14T06:22:36;19.00;53.70
51815;DHT22;37874;53.158;6.766;2023-03-14T06:25:04;19.00;53.80
51815;DHT22;37874;53.158;6.766;2023-03-14T06:27:29;19.00;53.90
51815;DHT22;37874;53.158;6.766;2023-03-14T06:29:55;18.90;53.90
51815;DHT22;37874;53.158;6.766;2023-03-14T06:32:21;19.00;54.00
51815;DHT22;37874;53.158;6.766;2023-03-14T06:34:47;18.90;53.90
51815;DHT22;37874;53.158;6.766;2023-03-14T06:37:12;18.90;53.90
51815;DHT22;37874;53.158;6.766;2023-03-14T06:39:38;19.00;54.10
51815;DHT22;37874;53.158;6.766;2023-03-14T06:42:04;18.90;54.00
51815;DHT22;37874;53.158;6.766;2023-03-14T06:44:30;18.90;54.10
51815;DHT22;37874;53.158;6.766;2023-03-14T06:46:56;18.90;54.00
51815;DHT22;37874;53.158;6.766;2023-03-14T06:49:22;18.90;53.90
51815;DHT22;37874;53.158;6.766;2023-03-14T06:51:47;18.90;53.90
51815;DHT22;37874;53.158;6.766;2023-03-14T06:54:13;18.90;53.80
51815;DHT22;37874;53.158;6.766;2023-03-14T06:56:38;18.80;54.00
51815;DHT22;37874;53.158;6.766;2023-03-14T06:59:04;18.80;53.90
51815;DHT22;37874;53.158;6.766;2023-03-14T07:01:30;18.80;54.00
51815;DHT22;37874;53.158;6.766;2023-03-14T07:03:57;18.90;54.00
51815;DHT22;37874;53.158;6.766;2023-03-14T07:06:23;18.90;54.10
51815;DHT22;37874;53.158;6.766;2023-03-14T07:08:50;18.90;54.20
51815;DHT22;37874;53.158;6.766;2023-03-14T07:11:16;18.90;53.90
51815;DHT22;37874;53.158;6.766;2023-03-14T07:13:41;18.90;54.00
51815;DHT22;37874;53.158;6.766;2023-03-14T07:16:08;18.90;53.80
51815;DHT22;37874;53.158;6.766;2023-03-14T07:18:34;18.90;54.00
51815;DHT22;37874;53.158;6.766;2023-03-14T07:20:59;18.90;54.10
51815;DHT22;37874;53.158;6.766;2023-03-14T07:23:25;18.90;54.10
51815;DHT22;37874;53.158;6.766;2023-03-14T07:25:51;18.90;54.00
51815;DHT22;37874;53.158;6.766;2023-03-14T07:28:19;18.90;54.20
51815;DHT22;37874;53.158;6.766;2023-03-14T07:30:46;18.90;54.10
51815;DHT22;37874;53.158;6.766;2023-03-14T07:33:12;18.90;54.20
51815;DHT22;37874;53.158;6.766;2023-03-14T07:35:38;18.90;54.40
51815;DHT22;37874;53.158;6.766;2023-03-14T07:38:03;18.90;54.30
51815;DHT22;37874;53.158;6.766;2023-03-14T07:40:29;18.90;54.40
51815;DHT22;37874;53.158;6.766;2023-03-14T07:42:55;19.00;54.40
51815;DHT22;37874;53.158;6.766;2023-03-14T07:45:21;19.00;54.20
51815;DHT22;37874;53.158;6.766;2023-03-14T07:47:46;19.00;54.40
51815;DHT22;37874;53.158;6.766;2023-03-14T07:50:12;19.20;55.00
51815;DHT22;37874;53.158;6.766;2023-03-14T07:52:38;19.00;54.30
51815;DHT22;37874;53.158;6.766;2023-03-14T07:55:04;19.00;55.10
51815;DHT22;37874;53.158;6.766;2023-03-14T07:57:29;19.10;54.40
51815;DHT22;37874;53.158;6.766;2023-03-14T07:59:55;19.00;54.30
51815;DHT22;37874;53.158;6.766;2023-03-14T08:02:21;19.10;54.30
51815;DHT22;37874;53.158;6.766;2023-03-14T08:04:48;19.10;54.10
51815;DHT22;37874;53.158;6.766;2023-03-14T08:07:14;19.10;54.20
51815;DHT22;37874;53.158;6.766;2023-03-14T08:09:39;19.10;54.20
51815;DHT22;37874;53.158;6.766;2023-03-14T08:12:05;19.10;54.00
51815;DHT22;37874;53.158;6.766;2023-03-14T08:14:31;19.10;53.80
51815;DHT22;37874;53.158;6.766;2023-03-14T08:16:57;19.10;53.50
51815;DHT22;37874;53.158;6.766;2023-03-14T08:19:22;19.20;53.50
51815;DHT22;37874;53.158;6.766;2023-03-14T08:21:48;19.20;53.50
51815;DHT22;37874;53.158;6.766;2023-03-14T08:24:13;19.20;53.40
51815;DHT22;37874;53.158;6.766;2023-03-14T08:26:39;19.30;53.50
51815;DHT22;37874;53.158;6.766;2023-03-14T08:29:05;19.30;53.50
51815;DHT22;37874;53.158;6.766;2023-03-14T08:31:30;19.30;53.40
51815;DHT22;37874;53.158;6.766;2023-03-14T08:33:59;19.30;53.20
51815;DHT22;37874;53.158;6.766;2023-03-14T08:36:25;19.40;53.40
51815;DHT22;37874;53.158;6.766;2023-03-14T08:38:50;19.40;53.20
51815;DHT22;37874;53.158;6.766;2023-03-14T08:41:16;19.40;53.30
51815;DHT22;37874;53.158;6.766;2023-03-14T08:43:41;19.40;53.10
51815;DHT22;37874;53.158;6.766;2023-03-14T08:46:07;19.50;53.20
51815;DHT22;37874;53.158;6.766;2023-03-14T08:48:33;19.50;53.00
51815;DHT22;37874;53.158;6.766;2023-03-14T08:51:25;19.50;53.00
51815;DHT22;37874;53.158;6.766;2023-03-14T08:53:50;19.60;53.10
51815;DHT22;37874;53.158;6.766;2023-03-14T08:56:16;19.60;53.10
51815;DHT22;37874;53.158;6.766;2023-03-14T08:58:42;19.60;52.90
51815;DHT22;37874;53.158;6.766;2023-03-14T09:01:09;19.60;52.90
51815;DHT22;37874;53.158;6.766;2023-03-14T09:03:35;19.60;52.70
51815;DHT22;37874;53.158;6.766;2023-03-14T09:06:02;19.70;52.80
51815;DHT22;37874;53.158;6.766;2023-03-14T09:08:29;19.70;52.80
51815;DHT22;37874;53.158;6.766;2023-03-14T09:10:54;19.80;52.80
51815;DHT22;37874;53.158;6.766;2023-03-14T09:13:20;19.70;52.70
51815;DHT22;37874;53.158;6.766;2023-03-14T09:16:05;19.80;52.70
51815;DHT22;37874;53.158;6.766;2023-03-14T09:18:31;19.80;52.20
51815;DHT22;37874;53.158;6.766;2023-03-14T09:20:57;19.80;52.70
51815;DHT22;37874;53.158;6.766;2023-03-14T09:23:23;19.80;52.50
51815;DHT22;37874;53.158;6.766;2023-03-14T09:25:49;19.80;52.50
51815;DHT22;37874;53.158;6.766;2023-03-14T09:28:14;19.80;52.40
51815;DHT22;37874;53.158;6.766;2023-03-14T09:30:40;19.90;52.10
51815;DHT22;37874;53.158;6.766;2023-03-14T09:33:05;19.90;52.20
51815;DHT22;37874;53.158;6.766;2023-03-14T09:35:33;19.90;52.20
51815;DHT22;37874;53.158;6.766;2023-03-14T09:37:59;19.90;52.30
51815;DHT22;37874;53.158;6.766;2023-03-14T09:40:31;19.80;52.20
51815;DHT22;37874;53.158;6.766;2023-03-14T09:42:59;19.90;52.00
51815;DHT22;37874;53.158;6.766;2023-03-14T09:45:33;19.80;52.20
51815;DHT22;37874;53.158;6.766;2023-03-14T09:47:59;19.90;52.40
51815;DHT22;37874;53.158;6.766;2023-03-14T09:50:40;19.80;52.30
51815;DHT22;37874;53.158;6.766;2023-03-14T09:53:14;19.80;52.40
51815;DHT22;37874;53.158;6.766;2023-03-14T09:55:42;19.80;52.30
51815;DHT22;37874;53.158;6.766;2023-03-14T09:58:18;19.80;52.40
51815;DHT22;37874;53.158;6.766;2023-03-14T10:00:44;19.80;52.40
51815;DHT22;37874;53.158;6.766;2023-03-14T10:05:40;19.80;52.10
51815;DHT22;37874;53.158;6.766;2023-03-14T10:08:09;19.80;53.00
51815;DHT22;37874;53.158;6.766;2023-03-14T10:10:35;19.80;52.30
51815;DHT22;37874;53.158;6.766;2023-03-14T10:15:38;19.80;52.10
51815;DHT22;37874;53.158;6.766;2023-03-14T10:18:10;19.90;52.10
51815;DHT22;37874;53.158;6.766;2023-03-14T10:20:45;19.80;51.70
51815;DHT22;37874;53.158;6.766;2023-03-14T10:25:58;19.80;51.10
51815;DHT22;37874;53.158;6.766;2023-03-14T10:28:26;19.80;51.20
51815;DHT22;37874;53.158;6.766;2023-03-14T10:30:52;19.80;51.60
51815;DHT22;37874;53.158;6.766;2023-03-14T10:35:44;19.90;51.80
51815;DHT22;37874;53.158;6.766;2023-03-14T10:38:16;19.80;51.90
51815;DHT22;37874;53.158;6.766;2023-03-14T10:40:53;19.90;51.60
51815;DHT22;37874;53.158;6.766;2023-03-14T10:43:23;19.80;50.70
51815;DHT22;37874;53.158;6.766;2023-03-14T10:46:05;19.90;50.70
51815;DHT22;37874;53.158;6.766;2023-03-14T10:48:36;19.90;51.60
51815;DHT22;37874;53.158;6.766;2023-03-14T10:51:09;19.90;51.20
51815;DHT22;37874;53.158;6.766;2023-03-14T10:53:43;19.90;51.30
51815;DHT22;37874;53.158;6.766;2023-03-14T10:56:20;19.90;51.20
51815;DHT22;37874;53.158;6.766;2023-03-14T10:58:51;20.00;50.00
51815;DHT22;37874;53.158;6.766;2023-03-14T11:09:42;20.00;50.20
51815;DHT22;37874;53.158;6.766;2023-03-14T11:12:33;20.00;50.20
51815;DHT22;37874;53.158;6.766;2023-03-14T11:15:17;20.00;50.80
51815;DHT22;37874;53.158;6.766;2023-03-14T11:20:38;19.90;50.50
51815;DHT22;37874;53.158;6.766;2023-03-14T11:23:22;19.90;50.10
51815;DHT22;37874;53.158;6.766;2023-03-14T11:26:01;20.00;50.30
51815;DHT22;37874;53.158;6.766;2023-03-14T11:28:40;20.00;49.80
51815;DHT22;37874;53.158;6.766;2023-03-14T11:31:26;20.00;50.10
51815;DHT22;37874;53.158;6.766;2023-03-14T11:39:39;20.00;50.00
51815;DHT22;37874;53.158;6.766;2023-03-14T11:42:14;20.10;49.70
51815;DHT22;37874;53.158;6.766;2023-03-14T11:44:44;20.00;49.00
51815;DHT22;37874;53.158;6.766;2023-03-14T11:47:34;20.00;49.60
51815;DHT22;37874;53.158;6.766;2023-03-14T11:50:25;20.00;48.30
51815;DHT22;37874;53.158;6.766;2023-03-14T11:53:08;20.30;48.50
51815;DHT22;37874;53.158;6.766;2023-03-14T11:55:36;20.40;47.40
51815;DHT22;37874;53.158;6.766;2023-03-14T11:58:25;20.70;46.80
51815;DHT22;37874;53.158;6.766;2023-03-14T12:00:53;20.80;47.50
51815;DHT22;37874;53.158;6.766;2023-03-14T12:03:46;20.90;45.90
51815;DHT22;37874;53.158;6.766;2023-03-14T12:06:28;21.10;46.60
51815;DHT22;37874;53.158;6.766;2023-03-14T12:08:58;21.10;46.80
51815;DHT22;37874;53.158;6.766;2023-03-14T12:13:54;21.30;45.70
51815;DHT22;37874;53.158;6.766;2023-03-14T12:18:48;21.30;46.20
51815;DHT22;37874;53.158;6.766;2023-03-14T12:21:14;21.10;46.40
51815;DHT22;37874;53.158;6.766;2023-03-14T12:23:49;21.00;47.40
51815;DHT22;37874;53.158;6.766;2023-03-14T14:27:35;21.70;45.60
51815;DHT22;37874;53.158;6.766;2023-03-14T14:30:24;21.90;45.30
51815;DHT22;37874;53.158;6.766;2023-03-14T14:32:51;22.00;44.10
51815;DHT22;37874;53.158;6.766;2023-03-14T14:35:31;22.00;43.00
51815;DHT22;37874;53.158;6.766;2023-03-14T14:37:58;22.00;42.70
51815;DHT22;37874;53.158;6.766;2023-03-14T14:40:26;21.80;43.30
51815;DHT22;37874;53.158;6.766;2023-03-14T14:42:53;21.80;43.70
51815;DHT22;37874;53.158;6.766;2023-03-14T14:45:21;21.70;44.40
51815;DHT22;37874;53.158;6.766;2023-03-14T14:47:53;21.70;44.30
51815;DHT22;37874;53.158;6.766;2023-03-14T14:50:29;21.60;44.70
51815;DHT22;37874;53.158;6.766;2023-03-14T14:53:01;21.40;45.10
51815;DHT22;37874;53.158;6.766;2023-03-14T14:55:40;21.40;45.40
51815;DHT22;37874;53.158;6.766;2023-03-14T15:00:54;21.20;45.90
51815;DHT22;37874;53.158;6.766;2023-03-14T15:03:21;21.10;46.20
51815;DHT22;37874;53.158;6.766;2023-03-14T15:05:47;21.00;46.90
51815;DHT22;37874;53.158;6.766;2023-03-14T15:08:13;21.00;46.90
51815;DHT22;37874;53.158;6.766;2023-03-14T15:10:39;21.00;47.40
51815;DHT22;37874;53.158;6.766;2023-03-14T15:13:04;20.90;47.60
51815;DHT22;37874;53.158;6.766;2023-03-14T15:15:30;21.00;47.70
51815;DHT22;37874;53.158;6.766;2023-03-14T15:17:56;21.10;47.50
51815;DHT22;37874;53.158;6.766;2023-03-14T15:20:22;21.40;47.20
51815;DHT22;37874;53.158;6.766;2023-03-14T15:22:49;21.70;46.40
51815;DHT22;37874;53.158;6.766;2023-03-14T15:25:15;21.90;44.90
51815;DHT22;37874;53.158;6.766;2023-03-14T15:27:41;22.10;45.50
51815;DHT22;37874;53.158;6.766;2023-03-14T15:30:12;22.30;44.80
51815;DHT22;37874;53.158;6.766;2023-03-14T15:32:38;22.20;45.00
51815;DHT22;37874;53.158;6.766;2023-03-14T15:35:04;22.30;44.10
51815;DHT22;37874;53.158;6.766;2023-03-14T15:37:30;22.40;45.10
51815;DHT22;37874;53.158;6.766;2023-03-14T15:39:56;22.60;44.50
51815;DHT22;37874;53.158;6.766;2023-03-14T15:42:23;22.80;44.40
51815;DHT22;37874;53.158;6.766;2023-03-14T15:44:49;23.00;42.90
51815;DHT22;37874;53.158;6.766;2023-03-14T15:47:15;23.00;44.30
51815;DHT22;37874;53.158;6.766;2023-03-14T15:49:40;23.20;44.00
51815;DHT22;37874;53.158;6.766;2023-03-14T15:52:06;23.20;43.80
51815;DHT22;37874;53.158;6.766;2023-03-14T15:54:33;23.10;44.20
51815;DHT22;37874;53.158;6.766;2023-03-14T15:56:59;23.00;43.50
51815;DHT22;37874;53.158;6.766;2023-03-14T15:59:25;22.90;44.10
51815;DHT22;37874;53.158;6.766;2023-03-14T16:01:53;22.80;43.70
51815;DHT22;37874;53.158;6.766;2023-03-14T16:04:18;22.60;44.30
51815;DHT22;37874;53.158;6.766;2023-03-14T16:06:44;22.70;45.30
51815;DHT22;37874;53.158;6.766;2023-03-14T16:09:11;22.50;44.10
51815;DHT22;37874;53.158;6.766;2023-03-14T16:11:37;22.40;44.30
51815;DHT22;37874;53.158;6.766;2023-03-14T16:14:03;22.30;43.70
51815;DHT22;37874;53.158;6.766;2023-03-14T16:16:29;22.20;44.80
51815;DHT22;37874;53.158;6.766;2023-03-14T16:18:54;22.10;44.20
51815;DHT22;37874;53.158;6.766;2023-03-14T16:21:21;22.00;45.10
51815;DHT22;37874;53.158;6.766;2023-03-14T16:23:47;21.90;45.30
51815;DHT22;37874;53.158;6.766;2023-03-14T16:26:15;21.80;45.60
51815;DHT22;37874;53.158;6.766;2023-03-14T16:28:42;21.70;45.10
51815;DHT22;37874;53.158;6.766;2023-03-14T16:31:13;21.60;45.40
51815;DHT22;37874;53.158;6.766;2023-03-14T16:33:42;21.70;46.20
51815;DHT22;37874;53.158;6.766;2023-03-14T16:36:10;21.40;46.50
51815;DHT22;37874;53.158;6.766;2023-03-14T16:38:38;21.30;46.30
51815;DHT22;37874;53.158;6.766;2023-03-14T16:41:10;21.20;46.80
51815;DHT22;37874;53.158;6.766;2023-03-14T16:43:37;21.20;47.40
51815;DHT22;37874;53.158;6.766;2023-03-14T16:46:05;21.10;46.80
51815;DHT22;37874;53.158;6.766;2023-03-14T16:48:31;21.00;47.80
51815;DHT22;37874;53.158;6.766;2023-03-14T16:50:57;21.00;47.80
51815;DHT22;37874;53.158;6.766;2023-03-14T16:53:23;20.90;47.90
51815;DHT22;37874;53.158;6.766;2023-03-14T16:55:50;20.90;46.70
51815;DHT22;37874;53.158;6.766;2023-03-14T16:58:16;20.80;47.20
51815;DHT22;37874;53.158;6.766;2023-03-14T17:00:44;20.80;47.80
51815;DHT22;37874;53.158;6.766;2023-03-14T17:03:10;20.70;48.40
51815;DHT22;37874;53.158;6.766;2023-03-14T17:05:36;20.70;48.50
51815;DHT22;37874;53.158;6.766;2023-03-14T17:08:03;20.60;48.90
51815;DHT22;37874;53.158;6.766;2023-03-14T17:10:29;20.60;49.00
51815;DHT22;37874;53.158;6.766;2023-03-14T17:12:54;20.60;48.80
51815;DHT22;37874;53.158;6.766;2023-03-14T17:15:20;20.50;48.50
51815;DHT22;37874;53.158;6.766;2023-03-14T17:17:46;20.50;49.10
51815;DHT22;37874;53.158;6.766;2023-03-14T17:20:12;20.40;49.40
51815;DHT22;37874;53.158;6.766;2023-03-14T17:22:37;20.40;49.30
51815;DHT22;37874;53.158;6.766;2023-03-14T17:25:03;20.30;49.20
51815;DHT22;37874;53.158;6.766;2023-03-14T17:27:29;20.20;49.20
51815;DHT22;37874;53.158;6.766;2023-03-14T17:29:55;20.20;49.60
51815;DHT22;37874;53.158;6.766;2023-03-14T17:32:20;20.10;49.40
51815;DHT22;37874;53.158;6.766;2023-03-14T17:34:46;20.10;48.50
51815;DHT22;37874;53.158;6.766;2023-03-14T17:37:12;20.00;47.30
51815;DHT22;37874;53.158;6.766;2023-03-14T17:39:38;19.90;48.60
51815;DHT22;37874;53.158;6.766;2023-03-14T17:42:04;19.80;49.50
51815;DHT22;37874;53.158;6.766;2023-03-14T17:44:31;19.80;50.00
51815;DHT22;37874;53.158;6.766;2023-03-14T17:46:57;19.70;50.20
51815;DHT22;37874;53.158;6.766;2023-03-14T17:49:23;19.70;50.20
51815;DHT22;37874;53.158;6.766;2023-03-14T17:51:49;19.70;50.70
51815;DHT22;37874;53.158;6.766;2023-03-14T17:54:14;19.70;51.00
51815;DHT22;37874;53.158;6.766;2023-03-14T17:56:40;19.70;51.20
51815;DHT22;37874;53.158;6.766;2023-03-14T17:59:11;19.70;51.30
51815;DHT22;37874;53.158;6.766;2023-03-14T18:01:37;19.70;51.60
51815;DHT22;37874;53.158;6.766;2023-03-14T18:04:04;19.60;51.60
51815;DHT22;37874;53.158;6.766;2023-03-14T18:06:30;19.60;51.80
51815;DHT22;37874;53.158;6.766;2023-03-14T18:08:57;19.70;51.80
51815;DHT22;37874;53.158;6.766;2023-03-14T18:11:24;19.60;51.60
51815;DHT22;37874;53.158;6.766;2023-03-14T18:13:50;19.60;50.80
51815;DHT22;37874;53.158;6.766;2023-03-14T18:16:16;19.60;51.60
51815;DHT22;37874;53.158;6.766;2023-03-14T18:18:43;19.50;51.60
51815;DHT22;37874;53.158;6.766;2023-03-14T18:21:08;19.60;51.90
51815;DHT22;37874;53.158;6.766;2023-03-14T18:23:36;19.50;51.90